createdAt,value
2019-05-28T00:00:33.627Z,6.50
2019-05-28T00:03:02.022Z,8.40
2019-05-28T00:05:30.428Z,5.00
2019-05-28T00:07:59.182Z,4.00
2019-05-28T00:10:27.589Z,12.10
2019-05-28T00:12:56.093Z,9.43
2019-05-28T00:15:24.841Z,5.27
2019-05-28T00:17:53.236Z,5.17
2019-05-28T00:20:21.884Z,7.50
2019-05-28T00:22:50.281Z,7.43
2019-05-28T00:25:18.760Z,9.37
2019-05-28T00:27:47.156Z,7.23
2019-05-28T00:30:20.257Z,9.43
2019-05-28T00:32:46.621Z,5.97
2019-05-28T00:35:15.777Z,11.07
2019-05-28T00:37:44.172Z,5.53
2019-05-28T00:40:13.173Z,5.10
2019-05-28T00:42:41.853Z,4.73
2019-05-28T00:45:11.301Z,8.00
2019-05-28T00:47:39.710Z,5.63
2019-05-28T00:50:09.361Z,5.50
2019-05-28T00:52:37.932Z,6.83
2019-05-28T00:55:07.884Z,4.73
2019-05-28T00:57:38.089Z,8.33
2019-05-28T01:00:07.385Z,6.20
2019-05-28T01:02:35.781Z,4.63
2019-05-28T01:05:06.180Z,5.27
2019-05-28T01:07:34.885Z,5.97
2019-05-28T01:10:05.434Z,5.43
2019-05-28T01:12:33.833Z,7.33
2019-05-28T01:15:02.494Z,4.97
2019-05-28T01:17:30.888Z,5.77
2019-05-28T01:19:59.301Z,7.17
2019-05-28T01:22:28.050Z,5.63
2019-05-28T01:24:56.461Z,5.23
2019-05-28T01:27:24.858Z,6.47
2019-05-28T01:29:53.621Z,6.23
2019-05-28T01:32:22.293Z,6.80
2019-05-28T01:34:50.709Z,6.10
2019-05-28T01:37:19.366Z,5.27
2019-05-28T01:39:47.774Z,9.10
2019-05-28T01:42:16.173Z,9.90
2019-05-28T01:44:44.588Z,4.80
2019-05-28T01:47:13.317Z,4.77
2019-05-28T01:49:41.725Z,9.70
2019-05-28T01:52:10.124Z,6.10
2019-05-28T01:54:38.857Z,8.77
2019-05-28T01:57:07.260Z,5.33
2019-05-28T01:59:35.929Z,6.47
2019-05-28T02:02:04.500Z,6.53
2019-05-28T02:04:32.905Z,8.93
2019-05-28T02:07:01.607Z,5.40
2019-05-28T02:09:30.069Z,7.20
2019-05-28T02:11:58.481Z,9.97
2019-05-28T02:14:26.889Z,9.80
2019-05-28T02:16:55.467Z,9.63
2019-05-28T02:19:23.881Z,7.63
2019-05-28T02:21:52.281Z,8.30
2019-05-28T02:24:20.696Z,6.33
2019-05-28T02:26:49.088Z,8.70
2019-05-28T02:29:17.761Z,11.50
2019-05-28T02:31:46.156Z,7.50
2019-05-28T02:34:14.820Z,7.70
2019-05-28T02:36:43.220Z,11.77
2019-05-28T02:39:11.893Z,8.30
2019-05-28T02:41:40.289Z,6.37
2019-05-28T02:44:08.966Z,7.23
2019-05-28T02:46:37.658Z,11.30
2019-05-28T02:49:06.132Z,8.03
2019-05-28T02:51:34.905Z,8.67
2019-05-28T02:54:04.062Z,6.67
2019-05-28T02:56:33.537Z,6.30
2019-05-28T02:59:02.395Z,7.53
2019-05-28T03:01:43.505Z,7.27
2019-05-28T03:04:04.416Z,6.33
2019-05-28T03:06:34.029Z,9.00
2019-05-28T03:09:05.273Z,8.47
2019-05-28T03:11:33.685Z,7.03
2019-05-28T03:14:02.155Z,6.40
2019-05-28T03:16:33.973Z,10.03
2019-05-28T03:19:03.965Z,11.40
2019-05-28T03:21:34.313Z,7.23
2019-05-28T03:24:04.230Z,11.50
2019-05-28T03:26:32.814Z,8.27
2019-05-28T03:29:01.476Z,7.10
2019-05-28T03:31:29.887Z,10.23
2019-05-28T03:33:58.618Z,6.23
2019-05-28T03:36:29.109Z,9.27
2019-05-28T03:38:59.346Z,7.57
2019-05-28T03:41:28.066Z,8.00
2019-05-28T03:43:56.456Z,8.50
2019-05-28T03:46:25.129Z,8.90
2019-05-28T03:48:53.821Z,9.30
2019-05-28T03:51:22.233Z,7.30
2019-05-28T03:53:50.666Z,6.00
2019-05-28T03:56:19.126Z,8.47
2019-05-28T03:58:47.524Z,7.87
2019-05-28T04:01:15.940Z,14.23
2019-05-28T04:03:45.042Z,8.80
2019-05-28T04:06:13.451Z,12.13
2019-05-28T04:08:42.108Z,8.80
2019-05-28T04:11:10.519Z,7.80
2019-05-28T04:13:38.917Z,11.17
2019-05-28T04:16:07.334Z,8.10
2019-05-28T04:18:35.728Z,8.57
2019-05-28T04:21:04.141Z,7.83
2019-05-28T04:23:32.541Z,10.67
2019-05-28T04:26:01.193Z,7.70
2019-05-28T04:28:29.595Z,8.30
2019-05-28T04:30:58.272Z,8.40
2019-05-28T04:33:26.669Z,15.30
2019-05-28T04:35:55.343Z,7.30
2019-05-28T04:38:23.745Z,10.23
2019-05-28T04:40:52.158Z,12.23
2019-05-28T04:43:20.557Z,9.33
2019-05-28T04:45:49.277Z,12.97
2019-05-28T04:48:17.978Z,9.00
2019-05-28T04:50:46.662Z,11.70
2019-05-28T04:53:15.350Z,12.30
2019-05-28T04:55:43.774Z,12.93
2019-05-28T04:58:12.176Z,9.93
2019-05-28T05:00:40.597Z,9.97
2019-05-28T05:03:08.996Z,12.77
2019-05-28T05:05:37.405Z,17.23
2019-05-28T05:08:05.809Z,11.00
2019-05-28T05:10:34.543Z,11.00
2019-05-28T05:13:03.234Z,13.70
2019-05-28T05:15:31.642Z,10.07
2019-05-28T05:18:00.366Z,8.87
2019-05-28T05:20:28.776Z,7.50
2019-05-28T05:22:57.468Z,9.80
2019-05-28T05:25:25.886Z,7.80
2019-05-28T05:27:54.550Z,10.20
2019-05-28T05:30:22.945Z,9.47
2019-05-28T05:32:51.360Z,11.00
2019-05-28T05:35:19.761Z,11.10
2019-05-28T05:37:48.185Z,13.07
2019-05-28T05:40:17.143Z,13.67
2019-05-28T05:42:45.544Z,15.50
2019-05-28T05:45:14.722Z,11.97
2019-05-28T05:47:43.141Z,11.10
2019-05-28T05:50:12.086Z,12.27
2019-05-28T05:52:40.561Z,10.60
2019-05-28T05:55:09.203Z,14.20
2019-05-28T05:57:37.902Z,9.13
2019-05-28T06:00:11.195Z,13.40
2019-05-28T06:02:37.491Z,10.13
2019-05-28T06:05:06.925Z,16.77
2019-05-28T06:07:35.752Z,12.70
2019-05-28T06:10:06.882Z,16.37
2019-05-28T06:12:35.566Z,15.97
2019-05-28T06:15:05.411Z,15.03
2019-05-28T06:17:33.839Z,14.90
2019-05-28T06:20:02.559Z,25.13
2019-05-28T06:22:31.241Z,10.10
2019-05-28T06:24:59.930Z,10.20
2019-05-28T06:27:28.341Z,12.30
2019-05-28T06:29:56.744Z,14.63
2019-05-28T06:32:25.156Z,14.40
2019-05-28T06:34:53.617Z,11.50
2019-05-28T06:37:22.029Z,13.93
2019-05-28T06:39:50.749Z,14.00
2019-05-28T06:42:19.169Z,31.40
2019-05-28T06:44:47.601Z,12.93
2019-05-28T06:47:16.006Z,11.40
2019-05-28T06:49:44.669Z,12.03
2019-05-28T06:52:13.090Z,11.00
2019-05-28T06:54:41.489Z,11.13
2019-05-28T06:57:22.245Z,10.10
2019-05-28T06:59:40.060Z,10.37
2019-05-28T07:02:08.474Z,11.30
2019-05-28T07:04:36.872Z,15.23
2019-05-28T07:07:05.293Z,16.97
2019-05-28T07:09:33.703Z,11.20
2019-05-28T07:12:02.113Z,11.47
2019-05-28T07:14:31.036Z,12.80
2019-05-28T07:17:00.054Z,11.60
2019-05-28T07:19:28.453Z,12.20
2019-05-28T07:21:57.125Z,11.20
2019-05-28T07:24:25.530Z,11.97
2019-05-28T07:26:53.937Z,10.33
2019-05-28T07:29:22.341Z,13.90
2019-05-28T07:31:50.752Z,9.30
2019-05-28T07:34:30.136Z,10.27
2019-05-28T07:36:49.298Z,11.37
2019-05-28T07:39:17.969Z,12.87
2019-05-28T07:41:46.756Z,14.87
2019-05-28T07:44:15.152Z,11.40
2019-05-28T07:46:43.824Z,20.90
2019-05-28T07:49:12.246Z,11.70
2019-05-28T07:51:40.657Z,15.47
2019-05-28T07:54:09.053Z,12.90
2019-05-28T07:56:37.468Z,14.80
2019-05-28T07:59:05.865Z,13.60
2019-05-28T08:01:34.278Z,15.40
2019-05-28T08:04:02.766Z,15.83
2019-05-28T08:06:31.485Z,11.60
2019-05-28T08:08:59.890Z,18.40
2019-05-28T08:11:28.323Z,16.13
2019-05-28T08:13:56.781Z,18.23
2019-05-28T08:16:25.181Z,16.63
2019-05-28T08:18:53.593Z,16.63
2019-05-28T08:21:21.997Z,13.50
2019-05-28T08:23:50.417Z,14.83
2019-05-28T08:26:19.157Z,16.70
2019-05-28T08:28:47.574Z,12.70
2019-05-28T08:31:20.709Z,12.87
2019-05-28T08:33:46.128Z,10.80
2019-05-28T08:36:14.842Z,9.27
2019-05-28T08:38:43.256Z,13.10
2019-05-28T08:41:11.662Z,8.27
2019-05-28T08:43:40.074Z,16.03
2019-05-28T08:46:08.492Z,15.50
2019-05-28T08:48:36.909Z,18.13
2019-05-28T08:51:05.306Z,20.23
2019-05-28T08:53:34.031Z,18.57
2019-05-28T08:56:02.437Z,17.60
2019-05-28T08:58:30.845Z,16.87
2019-05-28T09:00:59.246Z,14.70
2019-05-28T09:03:27.965Z,17.30
2019-05-28T09:05:56.758Z,15.67
2019-05-28T09:08:38.351Z,20.17
2019-05-28T09:10:55.605Z,13.87
2019-05-28T09:13:24.083Z,16.40
2019-05-28T09:15:52.743Z,12.07
2019-05-28T09:18:21.172Z,8.07
2019-05-28T09:20:49.651Z,10.17
2019-05-28T09:23:18.400Z,13.47
2019-05-28T09:25:47.094Z,11.47
2019-05-28T09:28:29.137Z,12.10
2019-05-28T09:30:45.860Z,9.90
2019-05-28T09:33:14.396Z,14.03
2019-05-28T09:35:50.477Z,12.07
2019-05-28T09:38:13.525Z,8.50
2019-05-28T09:40:50.095Z,12.80
2019-05-28T09:43:12.344Z,10.77
2019-05-28T09:45:41.005Z,9.43
2019-05-28T09:48:09.417Z,7.73
2019-05-28T09:50:37.818Z,9.43
2019-05-28T09:53:06.249Z,10.43
2019-05-28T09:55:34.950Z,11.80
2019-05-28T09:58:03.356Z,11.67
2019-05-28T10:00:34.733Z,12.63
2019-05-28T10:03:03.322Z,11.07
2019-05-28T10:05:31.723Z,14.70
2019-05-28T10:08:00.414Z,11.17
2019-05-28T10:10:29.125Z,8.83
2019-05-28T10:12:57.656Z,13.00
2019-05-28T10:15:26.285Z,11.80
2019-05-28T10:17:54.696Z,14.63
2019-05-28T10:20:23.739Z,15.70
2019-05-28T10:22:52.153Z,15.47
2019-05-28T10:25:21.179Z,13.97
2019-05-28T10:28:01.110Z,12.60
2019-05-28T10:30:20.149Z,14.27
2019-05-28T10:32:48.576Z,12.47
2019-05-28T10:35:17.504Z,11.10
2019-05-28T10:37:45.913Z,14.00
2019-05-28T10:40:14.971Z,14.77
2019-05-28T10:42:43.386Z,17.03
2019-05-28T10:45:12.981Z,13.80
2019-05-28T10:47:41.357Z,12.93
2019-05-28T10:50:10.442Z,14.20
2019-05-28T10:52:38.849Z,16.40
2019-05-28T10:55:07.813Z,14.80
2019-05-28T10:57:36.285Z,13.40
2019-05-28T11:00:09.798Z,15.03
2019-05-28T11:02:38.208Z,16.20
2019-05-28T11:05:10.571Z,14.90
2019-05-28T11:07:39.067Z,16.40
2019-05-28T11:10:23.179Z,23.37
2019-05-28T11:12:38.888Z,16.37
2019-05-28T11:15:09.638Z,19.37
2019-05-28T11:17:38.593Z,17.90
2019-05-28T11:20:08.166Z,15.53
2019-05-28T11:22:36.576Z,14.57
2019-05-28T11:25:06.895Z,16.73
2019-05-28T11:27:35.596Z,19.10
2019-05-28T11:30:09.406Z,17.33
2019-05-28T11:32:38.085Z,18.90
2019-05-28T11:35:07.365Z,17.27
2019-05-28T11:37:35.771Z,18.53
2019-05-28T11:40:07.493Z,16.97
2019-05-28T11:42:35.877Z,13.37
2019-05-28T11:45:07.301Z,18.70
2019-05-28T11:47:35.841Z,16.13
2019-05-28T11:50:09.202Z,20.10
2019-05-28T11:52:37.950Z,19.37
2019-05-28T11:55:09.697Z,19.80
2019-05-28T11:57:38.105Z,16.57
2019-05-28T12:00:08.233Z,18.33
2019-05-28T12:02:36.642Z,15.57
2019-05-28T12:05:09.791Z,18.33
2019-05-28T12:07:38.193Z,18.77
2019-05-28T12:10:08.295Z,17.40
2019-05-28T12:12:39.341Z,14.80
2019-05-28T12:15:12.833Z,14.20
2019-05-28T12:17:44.635Z,13.60
2019-05-28T12:20:14.324Z,15.60
2019-05-28T12:22:42.852Z,15.93
2019-05-28T12:25:13.486Z,14.77
2019-05-28T12:27:42.149Z,14.23
2019-05-28T12:30:12.877Z,19.00
2019-05-28T12:32:41.285Z,16.37
2019-05-28T12:35:26.507Z,17.07
2019-05-28T12:37:48.091Z,13.47
2019-05-28T12:40:12.183Z,14.50
2019-05-28T12:42:40.622Z,14.20
2019-05-28T12:45:14.205Z,15.77
2019-05-28T12:47:42.614Z,14.80
2019-05-28T12:50:19.687Z,11.73
2019-05-28T12:52:41.812Z,14.90
2019-05-28T12:55:10.865Z,18.10
2019-05-28T12:57:39.592Z,14.70
2019-05-28T13:00:13.212Z,14.83
2019-05-28T13:02:41.703Z,16.83
2019-05-28T13:05:13.424Z,17.53
2019-05-28T13:07:41.825Z,21.97
2019-05-28T13:10:10.789Z,15.67
2019-05-28T13:12:39.202Z,16.33
2019-05-28T13:15:08.622Z,18.80
2019-05-28T13:17:37.107Z,16.63
2019-05-28T13:20:06.905Z,11.10
2019-05-28T13:22:35.578Z,12.93
2019-05-28T13:25:08.498Z,8.47
2019-05-28T13:27:36.902Z,12.20
2019-05-28T13:30:14.053Z,12.37
2019-05-28T13:32:43.096Z,11.67
2019-05-28T13:35:12.996Z,12.57
2019-05-28T13:37:41.742Z,11.10
2019-05-28T13:40:11.856Z,10.67
2019-05-28T13:42:40.264Z,11.67
2019-05-28T13:45:09.610Z,8.67
2019-05-28T13:47:38.034Z,8.53
2019-05-28T13:50:10.264Z,13.23
2019-05-28T13:52:38.990Z,8.30
2019-05-28T13:55:08.554Z,8.87
2019-05-28T13:57:39.429Z,10.10
2019-05-28T14:00:09.768Z,8.03
2019-05-28T14:02:38.201Z,6.20
2019-05-28T14:05:07.154Z,8.10
2019-05-28T14:07:35.940Z,6.90
2019-05-28T14:10:09.546Z,5.93
2019-05-28T14:12:37.953Z,7.80
2019-05-28T14:15:08.111Z,8.30
2019-05-28T14:17:36.511Z,7.70
2019-05-28T14:20:06.622Z,8.10
2019-05-28T14:22:35.114Z,8.03
2019-05-28T14:25:03.828Z,5.23
2019-05-28T14:27:32.617Z,5.37
2019-05-28T14:30:01.026Z,3.80
2019-05-28T14:32:29.428Z,4.17
2019-05-28T14:34:58.170Z,5.23
2019-05-28T14:37:26.573Z,6.23
2019-05-28T14:39:54.988Z,4.97
2019-05-28T14:42:23.386Z,6.83
2019-05-28T14:44:51.797Z,8.80
2019-05-28T14:47:20.241Z,6.97
2019-05-28T14:49:48.649Z,7.93
2019-05-28T14:52:17.361Z,8.00
2019-05-28T14:54:46.066Z,10.57
2019-05-28T14:57:14.530Z,8.20
2019-05-28T14:59:42.941Z,9.20
2019-05-28T15:02:11.623Z,10.20
2019-05-28T15:04:40.044Z,10.10
2019-05-28T15:07:08.445Z,10.77
2019-05-28T15:09:37.165Z,11.33
2019-05-28T15:12:05.854Z,11.13
2019-05-28T15:14:34.276Z,8.27
2019-05-28T15:17:02.673Z,7.90
2019-05-28T15:19:31.409Z,7.17
2019-05-28T15:21:59.842Z,9.27
2019-05-28T15:24:28.478Z,9.70
2019-05-28T15:26:57.184Z,7.80
2019-05-28T15:29:25.857Z,8.50
2019-05-28T15:31:54.276Z,13.23
2019-05-28T15:34:22.677Z,10.67
2019-05-28T15:36:51.091Z,10.07
2019-05-28T15:39:37.937Z,7.97
2019-05-28T15:41:49.943Z,11.13
2019-05-28T15:44:18.345Z,11.37
2019-05-28T15:46:47.096Z,13.40
2019-05-28T15:49:15.782Z,12.77
2019-05-28T15:51:44.217Z,10.00
2019-05-28T15:54:12.617Z,8.00
2019-05-28T15:56:41.033Z,11.93
2019-05-28T15:59:09.439Z,9.17
2019-05-28T16:01:38.201Z,9.30
2019-05-28T16:04:06.721Z,12.77
2019-05-28T16:06:35.133Z,10.30
2019-05-28T16:09:04.773Z,8.97
2019-05-28T16:11:33.186Z,9.00
2019-05-28T16:14:02.360Z,9.03
2019-05-28T16:16:30.778Z,11.73
2019-05-28T16:18:59.173Z,8.23
2019-05-28T16:21:27.671Z,10.97
2019-05-28T16:23:56.072Z,9.10
2019-05-28T16:26:24.485Z,8.60
2019-05-28T16:28:52.886Z,10.20
2019-05-28T16:31:21.317Z,11.50
2019-05-28T16:33:49.712Z,9.03
2019-05-28T16:36:18.438Z,9.40
2019-05-28T16:38:47.222Z,9.80
2019-05-28T16:41:15.910Z,12.30
2019-05-28T16:43:44.318Z,10.00
2019-05-28T16:46:13.087Z,9.57
2019-05-28T16:48:41.774Z,9.80
2019-05-28T16:51:10.225Z,10.23
2019-05-28T16:53:38.624Z,10.47
2019-05-28T16:56:07.060Z,7.90
2019-05-28T16:58:35.469Z,10.67
2019-05-28T17:01:21.155Z,10.70
2019-05-28T17:03:34.248Z,10.30
2019-05-28T17:06:03.006Z,8.60
2019-05-28T17:08:31.708Z,11.43
2019-05-28T17:11:00.121Z,8.97
2019-05-28T17:13:28.791Z,8.97
2019-05-28T17:15:57.279Z,9.70
2019-05-28T17:18:25.978Z,9.53
2019-05-28T17:20:54.387Z,10.20
2019-05-28T17:23:23.117Z,13.63
2019-05-28T17:25:51.564Z,9.60
2019-05-28T17:28:20.027Z,8.87
2019-05-28T17:30:48.606Z,10.10
2019-05-28T17:33:17.040Z,10.10
2019-05-28T17:35:45.470Z,9.03
2019-05-28T17:38:13.891Z,10.70
2019-05-28T17:40:48.641Z,9.83
2019-05-28T17:43:13.362Z,13.83
2019-05-28T17:45:41.773Z,8.30
2019-05-28T17:48:10.205Z,7.83
2019-05-28T17:50:38.666Z,9.13
2019-05-28T17:53:07.094Z,8.57
2019-05-28T17:55:35.487Z,10.80
2019-05-28T17:58:04.370Z,8.33
2019-05-28T18:00:32.753Z,9.40
2019-05-28T18:03:01.193Z,9.80
2019-05-28T18:05:29.593Z,9.83
2019-05-28T18:07:58.002Z,7.63
2019-05-28T18:10:26.401Z,7.57
2019-05-28T18:12:54.825Z,7.10
2019-05-28T18:15:23.220Z,7.80
2019-05-28T18:17:51.634Z,7.80
2019-05-28T18:20:20.302Z,8.07
2019-05-28T18:22:48.729Z,10.13
2019-05-28T18:25:20.248Z,9.00
2019-05-28T18:27:48.029Z,8.20
2019-05-28T18:30:16.917Z,7.00
2019-05-28T18:32:45.601Z,7.30
2019-05-28T18:35:14.648Z,11.33
2019-05-28T18:37:43.069Z,11.60
2019-05-28T18:40:12.154Z,9.40
2019-05-28T18:42:40.909Z,11.40
2019-05-28T18:45:10.349Z,7.80
2019-05-28T18:47:39.784Z,9.40
2019-05-28T18:50:09.010Z,9.10
2019-05-28T18:52:37.426Z,8.13
2019-05-28T18:55:08.595Z,6.60
2019-05-28T18:57:37.083Z,8.47
2019-05-28T19:00:09.325Z,9.80
2019-05-28T19:02:38.070Z,5.90
2019-05-28T19:05:07.621Z,8.70
2019-05-28T19:07:36.034Z,7.83
2019-05-28T19:10:06.198Z,19.43
2019-05-28T19:12:34.621Z,8.23
2019-05-28T19:15:04.781Z,5.70
2019-05-28T19:17:33.187Z,7.73
2019-05-28T19:20:01.662Z,8.30
2019-05-28T19:22:30.180Z,9.03
2019-05-28T19:24:58.932Z,6.40
2019-05-28T19:27:27.344Z,9.90
2019-05-28T19:29:55.746Z,10.93
2019-05-28T19:32:24.163Z,7.63
2019-05-28T19:34:52.868Z,7.40
2019-05-28T19:37:21.668Z,10.13
2019-05-28T19:39:51.005Z,10.93
2019-05-28T19:42:19.477Z,7.33
2019-05-28T19:44:48.141Z,12.73
2019-05-28T19:47:16.837Z,11.20
2019-05-28T19:49:45.260Z,14.80
2019-05-28T19:52:13.668Z,9.80
2019-05-28T19:54:42.069Z,12.47
2019-05-28T19:57:10.484Z,10.97
2019-05-28T19:59:38.950Z,14.57
2019-05-28T20:02:07.743Z,12.70
2019-05-28T20:04:36.142Z,12.47
2019-05-28T20:07:04.730Z,9.40
2019-05-28T20:09:33.134Z,11.57
2019-05-28T20:12:12.235Z,11.97
2019-05-28T20:14:31.998Z,11.60
2019-05-28T20:17:00.409Z,11.50
2019-05-28T20:19:29.109Z,8.70
2019-05-28T20:21:57.594Z,13.40
2019-05-28T20:24:25.993Z,10.97
2019-05-28T20:26:54.405Z,10.10
2019-05-28T20:29:22.805Z,9.23
2019-05-28T20:31:51.217Z,9.70
2019-05-28T20:34:19.634Z,11.43
2019-05-28T20:36:48.037Z,9.67
2019-05-28T20:39:16.445Z,11.33
2019-05-28T20:41:44.856Z,9.53
2019-05-28T20:44:13.256Z,7.80
2019-05-28T20:46:42.101Z,11.70
2019-05-28T20:49:11.004Z,5.80
2019-05-28T20:51:39.489Z,5.73
2019-05-28T20:54:07.902Z,6.77
2019-05-28T20:56:36.567Z,8.13
2019-05-28T20:59:04.977Z,6.33
2019-05-28T21:01:33.372Z,6.63
2019-05-28T21:04:01.797Z,5.40
2019-05-28T21:06:30.222Z,6.53
2019-05-28T21:08:58.633Z,5.10
2019-05-28T21:11:27.032Z,5.20
2019-05-28T21:13:55.448Z,4.10
2019-05-28T21:16:23.845Z,3.33
2019-05-28T21:18:53.181Z,4.43
2019-05-28T21:21:22.061Z,4.57
2019-05-28T21:23:51.613Z,4.20
2019-05-28T21:26:20.151Z,4.10
2019-05-28T21:28:48.556Z,7.73
2019-05-28T21:31:16.952Z,2.43
2019-05-28T21:33:45.376Z,5.00
2019-05-28T21:36:13.772Z,5.40
2019-05-28T21:38:42.216Z,2.70
2019-05-28T21:41:11.018Z,3.93
2019-05-28T21:43:39.425Z,2.70
2019-05-28T21:46:08.122Z,2.80
2019-05-28T21:48:36.625Z,3.30
2019-05-28T21:51:05.366Z,3.10
2019-05-28T21:53:34.095Z,6.60
2019-05-28T21:56:03.497Z,2.23
2019-05-28T21:58:32.035Z,3.30
2019-05-28T22:01:15.262Z,2.37
2019-05-28T22:03:43.678Z,3.57
2019-05-28T22:06:12.073Z,3.07
2019-05-28T22:08:40.822Z,2.10
2019-05-28T22:11:09.221Z,4.53
2019-05-28T22:13:37.633Z,4.70
2019-05-28T22:16:06.033Z,5.47
2019-05-28T22:18:34.771Z,1.90
2019-05-28T22:21:04.430Z,2.80
2019-05-28T22:23:32.940Z,4.13
2019-05-28T22:26:02.559Z,2.93
2019-05-28T22:28:31.464Z,3.40
2019-05-28T22:30:59.918Z,4.63
2019-05-28T22:33:28.350Z,2.80
2019-05-28T22:35:57.069Z,1.63
2019-05-28T22:38:25.632Z,3.67
2019-05-28T22:40:54.296Z,4.17
2019-05-28T22:43:31.201Z,5.80
2019-05-28T22:45:52.905Z,8.53
2019-05-28T22:48:21.321Z,5.57
2019-05-28T22:50:49.720Z,4.67
2019-05-28T22:53:18.458Z,2.00
2019-05-28T22:55:46.853Z,2.33
2019-05-28T22:58:15.529Z,3.53
2019-05-28T23:00:43.929Z,2.30
2019-05-28T23:03:12.337Z,2.30
2019-05-28T23:05:41.090Z,1.83
2019-05-28T23:08:10.114Z,3.30
2019-05-28T23:10:38.569Z,2.17
2019-05-28T23:13:07.133Z,4.10
2019-05-28T23:15:35.664Z,1.83
2019-05-28T23:18:04.448Z,2.40
2019-05-28T23:20:33.049Z,3.77
2019-05-28T23:23:01.521Z,2.97
2019-05-28T23:25:30.192Z,2.80
2019-05-28T23:27:58.605Z,5.93
2019-05-28T23:30:27.267Z,3.40
2019-05-28T23:32:55.953Z,3.40
2019-05-28T23:35:24.348Z,2.23
2019-05-28T23:37:52.757Z,2.37
2019-05-28T23:40:21.509Z,2.60
2019-05-28T23:42:50.208Z,6.13
2019-05-28T23:45:18.608Z,3.53
2019-05-28T23:47:47.270Z,3.17
2019-05-28T23:50:17.995Z,3.03
2019-05-28T23:52:46.293Z,3.73
2019-05-28T23:55:15.141Z,4.67
2019-05-28T23:57:43.875Z,6.10
